sensor_id;sensor_type;location;lat;lon;timestamp;pressure;altitude;pressure_sealevel;temperature;humidity
11468;BME280;5790;42.762;23.430;2023-11-21T00:02:25;73978.47;;;-142.66;82.89
11468;BME280;5790;42.762;23.430;2023-11-21T00:04:54;73988.66;;;-142.66;82.48
11468;BME280;5790;42.762;23.430;2023-11-21T00:07:21;73992.75;;;-142.66;82.82
11468;BME280;5790;42.762;23.430;2023-11-21T00:09:48;74011.13;;;-142.66;82.84
11468;BME280;5790;42.762;23.430;2023-11-21T00:12:15;74011.13;;;-142.66;82.98
11468;BME280;5790;42.762;23.430;2023-11-21T00:14:43;74045.84;;;-142.66;83.43
11468;BME280;5790;42.762;23.430;2023-11-21T00:17:10;74051.97;;;-142.66;83.64
11468;BME280;5790;42.762;23.430;2023-11-21T00:19:37;74047.88;;;-142.66;83.89
11468;BME280;5790;42.762;23.430;2023-11-21T00:22:06;74062.19;;;-142.66;84.04
11468;BME280;5790;42.762;23.430;2023-11-21T00:24:34;74066.25;;;-142.66;84.38
11468;BME280;5790;42.762;23.430;2023-11-21T00:27:01;74076.47;;;-142.66;84.83
11468;BME280;5790;42.762;23.430;2023-11-21T00:29:29;74056.06;;;-142.66;84.53
11468;BME280;5790;42.762;23.430;2023-11-21T00:31:56;74056.06;;;-142.66;84.44
11468;BME280;5790;42.762;23.430;2023-11-21T00:34:23;74049.94;;;-142.66;84.74
11468;BME280;5790;42.762;23.430;2023-11-21T00:36:50;74027.47;;;-142.66;85.10
11468;BME280;5790;42.762;23.430;2023-11-21T00:39:19;74033.59;;;-142.66;85.18
11468;BME280;5790;42.762;23.430;2023-11-21T00:41:46;74031.56;;;-142.66;85.86
11468;BME280;5790;42.762;23.430;2023-11-21T00:44:14;74035.63;;;-142.66;85.98
11468;BME280;5790;42.762;23.430;2023-11-21T00:46:41;74025.44;;;-142.66;86.50
11468;BME280;5790;42.762;23.430;2023-11-21T00:49:08;74011.13;;;-142.66;86.54
11468;BME280;5790;42.762;23.430;2023-11-21T00:51:36;74002.97;;;-142.66;86.53
11468;BME280;5790;42.762;23.430;2023-11-21T00:54:03;73984.59;;;-142.66;86.62
11468;BME280;5790;42.762;23.430;2023-11-21T00:56:33;73980.50;;;-142.66;86.37
11468;BME280;5790;42.762;23.430;2023-11-21T00:59:00;73984.59;;;-142.66;86.75
11468;BME280;5790;42.762;23.430;2023-11-21T01:01:27;73986.63;;;-142.66;86.36
11468;BME280;5790;42.762;23.430;2023-11-21T01:03:55;73980.50;;;-142.66;85.87
11468;BME280;5790;42.762;23.430;2023-11-21T01:06:22;73974.38;;;-142.66;85.23
11468;BME280;5790;42.762;23.430;2023-11-21T01:08:49;73982.53;;;-142.66;85.18
11468;BME280;5790;42.762;23.430;2023-11-21T01:11:16;73984.59;;;-142.66;85.01
11468;BME280;5790;42.762;23.430;2023-11-21T01:13:45;73976.41;;;-142.66;84.84
11468;BME280;5790;42.762;23.430;2023-11-21T01:16:12;73968.25;;;-142.66;84.89
11468;BME280;5790;42.762;23.430;2023-11-21T01:18:39;73966.22;;;-142.66;84.83
11468;BME280;5790;42.762;23.430;2023-11-21T01:21:06;73976.41;;;-142.66;84.31
11468;BME280;5790;42.762;23.430;2023-11-21T01:23:34;74011.13;;;-142.66;84.49
11468;BME280;5790;42.762;23.430;2023-11-21T01:26:02;74009.09;;;-142.66;84.84
11468;BME280;5790;42.762;23.430;2023-11-21T01:28:29;74011.13;;;-142.66;84.90
11468;BME280;5790;42.762;23.430;2023-11-21T01:30:58;74002.97;;;-142.66;84.85
11468;BME280;5790;42.762;23.430;2023-11-21T01:33:25;74005.00;;;-142.66;84.52
11468;BME280;5790;42.762;23.430;2023-11-21T01:35:52;74015.22;;;-142.66;84.80
11468;BME280;5790;42.762;23.430;2023-11-21T01:38:20;74017.25;;;-142.66;84.65
11468;BME280;5790;42.762;23.430;2023-11-21T01:40:47;74031.56;;;-142.66;84.35
11468;BME280;5790;42.762;23.430;2023-11-21T01:43:14;74027.47;;;-142.66;84.57
11468;BME280;5790;42.762;23.430;2023-11-21T01:45:42;74029.50;;;-142.66;84.83
11468;BME280;5790;42.762;23.430;2023-11-21T01:48:13;74019.28;;;-142.66;85.07
11468;BME280;5790;42.762;23.430;2023-11-21T01:50:42;74002.97;;;-142.66;84.96
11468;BME280;5790;42.762;23.430;2023-11-21T01:53:12;74009.09;;;-142.66;84.30
11468;BME280;5790;42.762;23.430;2023-11-21T01:55:41;74005.00;;;-142.66;83.61
11468;BME280;5790;42.762;23.430;2023-11-21T01:58:10;74007.03;;;-142.66;83.30
11468;BME280;5790;42.762;23.430;2023-11-21T02:00:38;74002.97;;;-142.66;83.31
11468;BME280;5790;42.762;23.430;2023-11-21T02:03:05;73996.84;;;-142.66;83.37
11468;BME280;5790;42.762;23.430;2023-11-21T02:05:34;73992.75;;;-142.66;82.84
11468;BME280;5790;42.762;23.430;2023-11-21T02:08:01;73986.63;;;-142.66;82.42
11468;BME280;5790;42.762;23.430;2023-11-21T02:10:30;73994.78;;;-142.66;82.36
11468;BME280;5790;42.762;23.430;2023-11-21T02:12:57;73986.63;;;-142.66;82.47
11468;BME280;5790;42.762;23.430;2023-11-21T02:15:25;73990.72;;;-142.66;82.28
11468;BME280;5790;42.762;23.430;2023-11-21T02:17:54;73986.63;;;-142.66;82.14
11468;BME280;5790;42.762;23.430;2023-11-21T02:20:24;74002.97;;;-142.66;82.01
11468;BME280;5790;42.762;23.430;2023-11-21T02:22:54;73984.59;;;-142.66;82.08
11468;BME280;5790;42.762;23.430;2023-11-21T02:25:23;74009.09;;;-142.66;82.00
11468;BME280;5790;42.762;23.430;2023-11-21T02:27:51;74025.44;;;-142.66;82.33
11468;BME280;5790;42.762;23.430;2023-11-21T02:30:20;74029.50;;;-142.66;82.33
11468;BME280;5790;42.762;23.430;2023-11-21T02:32:48;74035.63;;;-142.66;82.31
11468;BME280;5790;42.762;23.430;2023-11-21T02:35:15;74031.56;;;-142.66;82.15
11468;BME280;5790;42.762;23.430;2023-11-21T02:37:42;74045.84;;;-142.66;82.18
11468;BME280;5790;42.762;23.430;2023-11-21T02:40:11;74041.75;;;-142.66;82.43
11468;BME280;5790;42.762;23.430;2023-11-21T02:42:43;74076.47;;;-142.66;83.31
11468;BME280;5790;42.762;23.430;2023-11-21T02:45:10;74084.63;;;-142.66;83.89
11468;BME280;5790;42.762;23.430;2023-11-21T02:47:38;74086.69;;;-142.66;83.90
11468;BME280;5790;42.762;23.430;2023-11-21T02:50:07;74115.25;;;-142.66;85.54
11468;BME280;5790;42.762;23.430;2023-11-21T02:52:34;74133.63;;;-142.66;86.22
11468;BME280;5790;42.762;23.430;2023-11-21T02:55:01;74125.47;;;-142.66;86.72
11468;BME280;5790;42.762;23.430;2023-11-21T02:57:30;74119.34;;;-142.66;87.11
11468;BME280;5790;42.762;23.430;2023-11-21T02:59:57;74105.06;;;-142.66;87.34
11468;BME280;5790;42.762;23.430;2023-11-21T03:02:25;74109.13;;;-142.66;87.21
11468;BME280;5790;42.762;23.430;2023-11-21T03:04:52;74109.13;;;-142.66;87.16
11468;BME280;5790;42.762;23.430;2023-11-21T03:07:20;74109.13;;;-142.66;87.00
11468;BME280;5790;42.762;23.430;2023-11-21T03:09:47;74121.38;;;-142.66;86.86
11468;BME280;5790;42.762;23.430;2023-11-21T03:12:14;74152.00;;;-142.66;87.42
11468;BME280;5790;42.762;23.430;2023-11-21T03:14:43;74164.25;;;-142.66;87.80
11468;BME280;5790;42.762;23.430;2023-11-21T03:17:10;74147.94;;;-142.66;88.05
11468;BME280;5790;42.762;23.430;2023-11-21T03:19:37;74135.69;;;-142.66;87.49
11468;BME280;5790;42.762;23.430;2023-11-21T03:22:04;74166.31;;;-142.66;88.26
11468;BME280;5790;42.762;23.430;2023-11-21T03:24:31;74182.63;;;-142.66;88.91
11468;BME280;5790;42.762;23.430;2023-11-21T03:26:58;74188.75;;;-142.66;89.56
11468;BME280;5790;42.762;23.430;2023-11-21T03:29:26;74201.03;;;-142.66;89.79
11468;BME280;5790;42.762;23.430;2023-11-21T03:31:54;74237.78;;;-142.66;90.33
11468;BME280;5790;42.762;23.430;2023-11-21T03:34:24;74219.41;;;-142.66;91.51
11468;BME280;5790;42.762;23.430;2023-11-21T03:36:52;74188.75;;;-142.66;91.40
11468;BME280;5790;42.762;23.430;2023-11-21T03:39:19;74186.72;;;-142.66;90.88
11468;BME280;5790;42.762;23.430;2023-11-21T03:41:47;74158.13;;;-142.66;90.55
11468;BME280;5790;42.762;23.430;2023-11-21T03:44:14;74141.81;;;-142.66;90.32
11468;BME280;5790;42.762;23.430;2023-11-21T03:46:43;74119.34;;;-142.66;90.25
11468;BME280;5790;42.762;23.430;2023-11-21T03:49:11;74109.13;;;-142.66;89.78
11468;BME280;5790;42.762;23.430;2023-11-21T03:51:38;74107.09;;;-142.66;89.63
11468;BME280;5790;42.762;23.430;2023-11-21T03:54:06;74088.72;;;-142.66;89.19
11468;BME280;5790;42.762;23.430;2023-11-21T03:56:33;74072.38;;;-142.66;88.61
11468;BME280;5790;42.762;23.430;2023-11-21T03:59:00;74076.47;;;-142.66;87.57
11468;BME280;5790;42.762;23.430;2023-11-21T04:01:27;74078.50;;;-142.66;87.10
11468;BME280;5790;42.762;23.430;2023-11-21T04:03:54;74092.81;;;-142.66;86.76
11468;BME280;5790;42.762;23.430;2023-11-21T04:06:24;74109.13;;;-142.66;87.11
11468;BME280;5790;42.762;23.430;2023-11-21T04:08:51;74103.00;;;-142.66;87.16
11468;BME280;5790;42.762;23.430;2023-11-21T04:11:18;74100.97;;;-142.66;87.37
11468;BME280;5790;42.762;23.430;2023-11-21T04:13:45;74103.00;;;-142.66;87.58
11468;BME280;5790;42.762;23.430;2023-11-21T04:16:13;74139.75;;;-142.66;88.10
11468;BME280;5790;42.762;23.430;2023-11-21T04:18:40;74127.50;;;-142.66;88.46
11468;BME280;5790;42.762;23.430;2023-11-21T04:21:07;74111.19;;;-142.66;88.23
11468;BME280;5790;42.762;23.430;2023-11-21T04:23:36;74107.09;;;-142.66;87.82
11468;BME280;5790;42.762;23.430;2023-11-21T04:26:03;74123.44;;;-142.66;87.86
11468;BME280;5790;42.762;23.430;2023-11-21T04:28:30;74121.38;;;-142.66;88.14
11468;BME280;5790;42.762;23.430;2023-11-21T04:30:57;74121.38;;;-142.66;88.37
11468;BME280;5790;42.762;23.430;2023-11-21T04:33:24;74109.13;;;-142.66;88.29
11468;BME280;5790;42.762;23.430;2023-11-21T04:35:52;74113.22;;;-142.66;88.89
11468;BME280;5790;42.762;23.430;2023-11-21T04:38:19;74115.25;;;-142.66;89.03
11468;BME280;5790;42.762;23.430;2023-11-21T04:40:47;74105.06;;;-142.66;89.02
11468;BME280;5790;42.762;23.430;2023-11-21T04:43:14;74096.88;;;-142.66;89.16
11468;BME280;5790;42.762;23.430;2023-11-21T04:45:42;74090.75;;;-142.66;88.79
11468;BME280;5790;42.762;23.430;2023-11-21T04:48:09;74115.25;;;-142.66;89.57
11468;BME280;5790;42.762;23.430;2023-11-21T04:50:36;74107.09;;;-142.66;89.77
11468;BME280;5790;42.762;23.430;2023-11-21T04:53:04;74100.97;;;-142.66;89.71
11468;BME280;5790;42.762;23.430;2023-11-21T04:55:31;74100.97;;;-142.66;89.05
11468;BME280;5790;42.762;23.430;2023-11-21T04:58:00;74109.13;;;-142.66;89.46
11468;BME280;5790;42.762;23.430;2023-11-21T05:00:27;74135.69;;;-142.66;89.57
11468;BME280;5790;42.762;23.430;2023-11-21T05:02:54;74170.38;;;-142.66;90.15
11468;BME280;5790;42.762;23.430;2023-11-21T05:05:21;74176.50;;;-142.66;90.53
11468;BME280;5790;42.762;23.430;2023-11-21T05:07:48;74186.72;;;-142.66;90.97
11468;BME280;5790;42.762;23.430;2023-11-21T05:10:16;74188.75;;;-142.66;91.08
11468;BME280;5790;42.762;23.430;2023-11-21T05:12:43;74198.97;;;-142.66;91.90
11468;BME280;5790;42.762;23.430;2023-11-21T05:15:14;74211.22;;;-142.66;92.59
11468;BME280;5790;42.762;23.430;2023-11-21T05:17:41;74233.69;;;-142.66;93.83
11468;BME280;5790;42.762;23.430;2023-11-21T05:20:10;74254.09;;;-142.66;95.18
11468;BME280;5790;42.762;23.430;2023-11-21T05:22:38;74237.78;;;-142.66;95.86
11468;BME280;5790;42.762;23.430;2023-11-21T05:25:06;74235.72;;;-142.66;96.50
11468;BME280;5790;42.762;23.430;2023-11-21T05:27:34;74225.53;;;-142.66;96.74
11468;BME280;5790;42.762;23.430;2023-11-21T05:30:02;74209.19;;;-142.66;96.50
11468;BME280;5790;42.762;23.430;2023-11-21T05:32:32;74198.97;;;-142.66;96.42
11468;BME280;5790;42.762;23.430;2023-11-21T05:34:59;74182.63;;;-142.66;95.86
11468;BME280;5790;42.762;23.430;2023-11-21T05:37:26;74178.56;;;-142.66;94.87
11468;BME280;5790;42.762;23.430;2023-11-21T05:39:54;74160.19;;;-142.66;94.43
11468;BME280;5790;42.762;23.430;2023-11-21T05:42:22;74162.22;;;-142.66;94.37
11468;BME280;5790;42.762;23.430;2023-11-21T05:44:49;74160.19;;;-142.66;94.15
11468;BME280;5790;42.762;23.430;2023-11-21T05:47:16;74143.84;;;-142.66;94.54
11468;BME280;5790;42.762;23.430;2023-11-21T05:49:45;74131.59;;;-142.66;94.68
11468;BME280;5790;42.762;23.430;2023-11-21T05:52:15;74111.19;;;-142.66;94.18
11468;BME280;5790;42.762;23.430;2023-11-21T05:54:43;74100.97;;;-142.66;93.69
11468;BME280;5790;42.762;23.430;2023-11-21T05:57:10;74086.69;;;-142.66;93.04
11468;BME280;5790;42.762;23.430;2023-11-21T05:59:37;74074.44;;;-142.66;92.87
11468;BME280;5790;42.762;23.430;2023-11-21T06:02:04;74072.38;;;-142.66;91.84
11468;BME280;5790;42.762;23.430;2023-11-21T06:04:33;74070.34;;;-142.66;90.87
11468;BME280;5790;42.762;23.430;2023-11-21T06:07:01;74072.38;;;-142.66;90.37
11468;BME280;5790;42.762;23.430;2023-11-21T06:09:28;74062.19;;;-142.66;90.66
11468;BME280;5790;42.762;23.430;2023-11-21T06:11:55;74060.13;;;-142.66;89.82
11468;BME280;5790;42.762;23.430;2023-11-21T06:14:22;74074.44;;;-142.66;89.16
11468;BME280;5790;42.762;23.430;2023-11-21T06:16:49;74082.59;;;-142.66;89.02
11468;BME280;5790;42.762;23.430;2023-11-21T06:19:18;74072.38;;;-142.66;89.40
11468;BME280;5790;42.762;23.430;2023-11-21T06:21:45;74064.22;;;-142.66;89.38
11468;BME280;5790;42.762;23.430;2023-11-21T06:24:14;74058.09;;;-142.66;88.92
11468;BME280;5790;42.762;23.430;2023-11-21T06:26:42;74056.06;;;-142.66;89.20
11468;BME280;5790;42.762;23.430;2023-11-21T06:29:10;74062.19;;;-142.66;89.20
11468;BME280;5790;42.762;23.430;2023-11-21T06:31:37;74047.88;;;-142.66;89.21
11468;BME280;5790;42.762;23.430;2023-11-21T06:34:06;74049.94;;;-142.66;89.05
11468;BME280;5790;42.762;23.430;2023-11-21T06:36:34;74029.50;;;-142.66;89.63
11468;BME280;5790;42.762;23.430;2023-11-21T06:39:01;74025.44;;;-142.66;88.83
11468;BME280;5790;42.762;23.430;2023-11-21T06:41:33;74017.25;;;-142.66;88.65
11468;BME280;5790;42.762;23.430;2023-11-21T06:44:00;74002.97;;;-142.66;88.87
11468;BME280;5790;42.762;23.430;2023-11-21T06:46:28;74007.03;;;-142.66;88.53
11468;BME280;5790;42.762;23.430;2023-11-21T06:48:55;74005.00;;;-142.66;88.58
11468;BME280;5790;42.762;23.430;2023-11-21T06:51:22;74000.91;;;-142.66;88.79
11468;BME280;5790;42.762;23.430;2023-11-21T06:53:49;73996.84;;;-142.66;88.73
11468;BME280;5790;42.762;23.430;2023-11-21T06:56:17;73988.66;;;-142.66;89.65
11468;BME280;5790;42.762;23.430;2023-11-21T06:58:45;73986.63;;;-142.66;89.27
11468;BME280;5790;42.762;23.430;2023-11-21T07:01:13;73990.72;;;-142.66;89.68
11468;BME280;5790;42.762;23.430;2023-11-21T07:03:40;73982.53;;;-142.66;89.71
11468;BME280;5790;42.762;23.430;2023-11-21T07:06:08;73978.47;;;-142.66;89.65
11468;BME280;5790;42.762;23.430;2023-11-21T07:08:35;73972.34;;;-142.66;89.46
11468;BME280;5790;42.762;23.430;2023-11-21T07:11:03;73976.41;;;-142.66;89.24
11468;BME280;5790;42.762;23.430;2023-11-21T07:13:30;73980.50;;;-142.66;89.48
11468;BME280;5790;42.762;23.430;2023-11-21T07:15:59;73972.34;;;-142.66;89.33
11468;BME280;5790;42.762;23.430;2023-11-21T07:18:26;73966.22;;;-142.66;89.24
11468;BME280;5790;42.762;23.430;2023-11-21T07:20:53;73953.97;;;-142.66;88.10
11468;BME280;5790;42.762;23.430;2023-11-21T07:23:20;73951.91;;;-142.66;88.40
11468;BME280;5790;42.762;23.430;2023-11-21T07:25:48;73925.38;;;-142.66;87.95
11468;BME280;5790;42.762;23.430;2023-11-21T07:28:15;73941.72;;;-142.66;87.51
11468;BME280;5790;42.762;23.430;2023-11-21T07:30:42;73953.97;;;-142.66;87.82
11468;BME280;5790;42.762;23.430;2023-11-21T07:33:11;73951.91;;;-142.66;87.96
11468;BME280;5790;42.762;23.430;2023-11-21T07:35:38;73958.03;;;-142.66;88.23
11468;BME280;5790;42.762;23.430;2023-11-21T07:38:05;73956.00;;;-142.66;88.15
11468;BME280;5790;42.762;23.430;2023-11-21T07:40:32;73951.91;;;-142.66;88.92
11468;BME280;5790;42.762;23.430;2023-11-21T07:42:59;73949.88;;;-142.66;89.02
11468;BME280;5790;42.762;23.430;2023-11-21T07:45:26;73939.66;;;-142.66;89.96
11468;BME280;5790;42.762;23.430;2023-11-21T07:47:54;73921.28;;;-142.66;89.62
11468;BME280;5790;42.762;23.430;2023-11-21T07:50:23;73904.97;;;-142.66;88.33
11468;BME280;5790;42.762;23.430;2023-11-21T07:52:50;73911.09;;;-142.66;88.04
11468;BME280;5790;42.762;23.430;2023-11-21T07:55:17;73902.91;;;-142.66;88.14
11468;BME280;5790;42.762;23.430;2023-11-21T07:57:44;73896.78;;;-142.66;87.35
11468;BME280;5790;42.762;23.430;2023-11-21T08:00:12;73878.41;;;-142.66;87.33
11468;BME280;5790;42.762;23.430;2023-11-21T08:02:41;73870.25;;;-142.66;87.43
11468;BME280;5790;42.762;23.430;2023-11-21T08:05:11;73866.16;;;-142.66;86.46
11468;BME280;5790;42.762;23.430;2023-11-21T08:07:40;73880.47;;;-142.66;86.79
11468;BME280;5790;42.762;23.430;2023-11-21T08:10:08;73870.25;;;-142.66;87.77
11468;BME280;5790;42.762;23.430;2023-11-21T08:12:36;73864.13;;;-142.66;88.03
11468;BME280;5790;42.762;23.430;2023-11-21T08:15:05;73860.03;;;-142.66;87.66
11468;BME280;5790;42.762;23.430;2023-11-21T08:17:33;73874.34;;;-142.66;89.36
11468;BME280;5790;42.762;23.430;2023-11-21T08:20:00;73851.88;;;-142.66;88.75
11468;BME280;5790;42.762;23.430;2023-11-21T08:22:29;73841.66;;;-142.66;88.16
11468;BME280;5790;42.762;23.430;2023-11-21T08:24:58;73837.59;;;-142.66;87.62
11468;BME280;5790;42.762;23.430;2023-11-21T08:27:24;73835.53;;;-142.66;87.61
11468;BME280;5790;42.762;23.430;2023-11-21T08:29:52;73827.38;;;-142.66;88.03
11468;BME280;5790;42.762;23.430;2023-11-21T08:32:20;73823.28;;;-142.66;87.81
11468;BME280;5790;42.762;23.430;2023-11-21T08:34:47;73839.63;;;-142.66;88.77
11468;BME280;5790;42.762;23.430;2023-11-21T08:37:16;73811.03;;;-142.66;89.10
11468;BME280;5790;42.762;23.430;2023-11-21T08:39:44;73800.84;;;-142.66;88.33
11468;BME280;5790;42.762;23.430;2023-11-21T08:42:12;73792.66;;;-142.66;88.90
11468;BME280;5790;42.762;23.430;2023-11-21T08:44:40;73786.53;;;-142.66;89.26
11468;BME280;5790;42.762;23.430;2023-11-21T08:47:07;73788.59;;;-142.66;87.95
11468;BME280;5790;42.762;23.430;2023-11-21T08:49:34;73776.34;;;-142.66;87.55
11468;BME280;5790;42.762;23.430;2023-11-21T08:52:01;73776.34;;;-142.66;87.52
11468;BME280;5790;42.762;23.430;2023-11-21T08:54:28;73776.34;;;-142.66;86.72
11468;BME280;5790;42.762;23.430;2023-11-21T08:56:55;73778.38;;;-142.66;86.78
11468;BME280;5790;42.762;23.430;2023-11-21T08:59:25;73762.03;;;-142.66;86.81
11468;BME280;5790;42.762;23.430;2023-11-21T09:01:52;73757.97;;;-142.66;85.89
11468;BME280;5790;42.762;23.430;2023-11-21T09:04:19;73751.84;;;-142.66;85.88
11468;BME280;5790;42.762;23.430;2023-11-21T09:06:46;73731.41;;;-142.66;86.16
11468;BME280;5790;42.762;23.430;2023-11-21T09:09:13;73715.09;;;-142.66;86.54
11468;BME280;5790;42.762;23.430;2023-11-21T09:11:40;73704.88;;;-142.66;85.83
11468;BME280;5790;42.762;23.430;2023-11-21T09:14:09;73688.56;;;-142.66;86.20
11468;BME280;5790;42.762;23.430;2023-11-21T09:16:40;73676.31;;;-142.66;86.31
11468;BME280;5790;42.762;23.430;2023-11-21T09:19:07;73668.13;;;-142.66;85.54
11468;BME280;5790;42.762;23.430;2023-11-21T09:21:34;73666.09;;;-142.66;85.86
11468;BME280;5790;42.762;23.430;2023-11-21T09:24:01;73653.84;;;-142.66;85.35
11468;BME280;5790;42.762;23.430;2023-11-21T09:26:29;73643.63;;;-142.66;85.50
11468;BME280;5790;42.762;23.430;2023-11-21T09:28:56;73633.44;;;-142.66;85.04
11468;BME280;5790;42.762;23.430;2023-11-21T09:31:23;73615.06;;;-142.66;83.86
11468;BME280;5790;42.762;23.430;2023-11-21T09:33:52;73606.88;;;-142.66;83.83
11468;BME280;5790;42.762;23.430;2023-11-21T09:36:19;73592.59;;;-142.66;83.07
11468;BME280;5790;42.762;23.430;2023-11-21T09:38:47;73586.47;;;-142.66;83.58
11468;BME280;5790;42.762;23.430;2023-11-21T09:41:21;73555.84;;;-142.66;83.78
11468;BME280;5790;42.762;23.430;2023-11-21T09:43:53;73545.66;;;-142.66;84.17
11468;BME280;5790;42.762;23.430;2023-11-21T09:46:23;73549.72;;;-142.66;83.91
11468;BME280;5790;42.762;23.430;2023-11-21T09:48:55;73523.19;;;-142.66;84.80
11468;BME280;5790;42.762;23.430;2023-11-21T09:51:27;73504.81;;;-142.66;85.03
11468;BME280;5790;42.762;23.430;2023-11-21T09:53:57;73492.56;;;-142.66;83.72
11468;BME280;5790;42.762;23.430;2023-11-21T09:56:27;73484.41;;;-142.66;83.41
11468;BME280;5790;42.762;23.430;2023-11-21T09:58:55;73476.22;;;-142.66;82.98
11468;BME280;5790;42.762;23.430;2023-11-21T10:01:25;73459.91;;;-142.66;84.17
11468;BME280;5790;42.762;23.430;2023-11-21T10:03:55;73441.53;;;-142.66;84.14
11468;BME280;5790;42.762;23.430;2023-11-21T10:06:22;73431.31;;;-142.66;84.31
11468;BME280;5790;42.762;23.430;2023-11-21T10:08:52;73431.31;;;-142.66;81.83
11468;BME280;5790;42.762;23.430;2023-11-21T10:11:24;73427.25;;;-142.66;81.51
11468;BME280;5790;42.762;23.430;2023-11-21T10:13:52;73423.16;;;-142.66;83.00
11468;BME280;5790;42.762;23.430;2023-11-21T10:16:22;73410.91;;;-142.66;83.78
11468;BME280;5790;42.762;23.430;2023-11-21T10:18:52;73400.69;;;-142.66;83.87
11468;BME280;5790;42.762;23.430;2023-11-21T10:21:22;73392.53;;;-142.66;83.45
11468;BME280;5790;42.762;23.430;2023-11-21T10:23:50;73382.34;;;-142.66;83.87
11468;BME280;5790;42.762;23.430;2023-11-21T10:26:20;73376.22;;;-142.66;83.65
11468;BME280;5790;42.762;23.430;2023-11-21T10:28:56;73363.97;;;-142.66;83.57
11468;BME280;5790;42.762;23.430;2023-11-21T10:31:23;73370.06;;;-142.66;80.77
11468;BME280;5790;42.762;23.430;2023-11-21T10:33:51;73355.78;;;-142.66;81.07
11468;BME280;5790;42.762;23.430;2023-11-21T10:36:29;73363.97;;;-142.66;80.15
11468;BME280;5790;42.762;23.430;2023-11-21T10:38:56;73368.03;;;-142.66;78.43
11468;BME280;5790;42.762;23.430;2023-11-21T10:41:23;73357.84;;;-142.66;78.73
11468;BME280;5790;42.762;23.430;2023-11-21T10:43:53;73349.66;;;-142.66;79.21
11468;BME280;5790;42.762;23.430;2023-11-21T10:46:22;73339.47;;;-142.66;78.94
11468;BME280;5790;42.762;23.430;2023-11-21T10:48:52;73308.84;;;-142.66;78.80
11468;BME280;5790;42.762;23.430;2023-11-21T10:51:21;73290.47;;;-142.66;78.52
11468;BME280;5790;42.762;23.430;2023-11-21T10:53:51;73282.31;;;-142.66;79.54
11468;BME280;5790;42.762;23.430;2023-11-21T10:56:19;73278.22;;;-142.66;80.28
11468;BME280;5790;42.762;23.430;2023-11-21T10:58:48;73282.31;;;-142.66;79.76
11468;BME280;5790;42.762;23.430;2023-11-21T11:01:17;73274.13;;;-142.66;77.90
11468;BME280;5790;42.762;23.430;2023-11-21T11:03:47;73265.97;;;-142.66;77.08
11468;BME280;5790;42.762;23.430;2023-11-21T11:06:14;73257.81;;;-142.66;76.06
11468;BME280;5790;42.762;23.430;2023-11-21T11:08:42;73251.69;;;-142.66;75.84
11468;BME280;5790;42.762;23.430;2023-11-21T11:11:12;73263.94;;;-142.66;77.02
11468;BME280;5790;42.762;23.430;2023-11-21T11:13:43;73253.72;;;-142.66;76.51
11468;BME280;5790;42.762;23.430;2023-11-21T11:16:12;73251.69;;;-142.66;76.44
11468;BME280;5790;42.762;23.430;2023-11-21T11:18:42;73247.59;;;-142.66;77.03
11468;BME280;5790;42.762;23.430;2023-11-21T11:21:33;73251.69;;;-142.66;76.96
11468;BME280;5790;42.762;23.430;2023-11-21T11:27:24;73268.00;;;-142.66;77.51
11468;BME280;5790;42.762;23.430;2023-11-21T11:30:03;73239.44;;;-142.66;77.43
11468;BME280;5790;42.762;23.430;2023-11-21T11:32:43;73233.31;;;-142.66;77.55
11468;BME280;5790;42.762;23.430;2023-11-21T11:35:19;73229.22;;;-142.66;77.94
11468;BME280;5790;42.762;23.430;2023-11-21T11:37:48;73210.84;;;-142.66;77.27
11468;BME280;5790;42.762;23.430;2023-11-21T11:40:15;73214.94;;;-142.66;76.81
11468;BME280;5790;42.762;23.430;2023-11-21T11:42:58;73200.66;;;-142.66;76.85
11468;BME280;5790;42.762;23.430;2023-11-21T11:45:32;73210.84;;;-142.66;77.45
11468;BME280;5790;42.762;23.430;2023-11-21T11:48:01;73196.56;;;-142.66;76.39
11468;BME280;5790;42.762;23.430;2023-11-21T11:50:29;73200.66;;;-142.66;75.94
11468;BME280;5790;42.762;23.430;2023-11-21T11:53:12;73212.91;;;-142.66;77.49
11468;BME280;5790;42.762;23.430;2023-11-21T11:55:40;73212.91;;;-142.66;76.99
11468;BME280;5790;42.762;23.430;2023-11-21T11:58:08;73223.09;;;-142.66;79.10
11468;BME280;5790;42.762;23.430;2023-11-21T12:00:35;73221.06;;;-142.66;80.27
11468;BME280;5790;42.762;23.430;2023-11-21T12:03:06;73216.97;;;-142.66;82.12
11468;BME280;5790;42.762;23.430;2023-11-21T12:05:34;73210.84;;;-142.66;82.12
11468;BME280;5790;42.762;23.430;2023-11-21T12:08:05;73206.78;;;-142.66;82.77
11468;BME280;5790;42.762;23.430;2023-11-21T12:10:34;73204.72;;;-142.66;81.70
11468;BME280;5790;42.762;23.430;2023-11-21T12:13:03;73212.91;;;-142.66;83.47
11468;BME280;5790;42.762;23.430;2023-11-21T12:15:34;73214.94;;;-142.66;82.84
11468;BME280;5790;42.762;23.430;2023-11-21T12:18:02;73202.69;;;-142.66;83.08
11468;BME280;5790;42.762;23.430;2023-11-21T12:20:31;73204.72;;;-142.66;83.82
11468;BME280;5790;42.762;23.430;2023-11-21T12:22:59;73202.69;;;-142.66;84.07
11468;BME280;5790;42.762;23.430;2023-11-21T12:25:27;73212.91;;;-142.66;84.93
11468;BME280;5790;42.762;23.430;2023-11-21T12:27:58;73219.03;;;-142.66;85.64
11468;BME280;5790;42.762;23.430;2023-11-21T12:30:26;73231.28;;;-142.66;86.31
11468;BME280;5790;42.762;23.430;2023-11-21T12:32:58;73225.16;;;-142.66;88.29
11468;BME280;5790;42.762;23.430;2023-11-21T12:35:28;73229.22;;;-142.66;88.71
11468;BME280;5790;42.762;23.430;2023-11-21T12:37:56;73229.22;;;-142.66;88.79
11468;BME280;5790;42.762;23.430;2023-11-21T12:40:24;73233.31;;;-142.66;89.28
11468;BME280;5790;42.762;23.430;2023-11-21T12:42:59;73223.09;;;-142.66;90.75
11468;BME280;5790;42.762;23.430;2023-11-21T12:45:27;73225.16;;;-142.66;92.04
11468;BME280;5790;42.762;23.430;2023-11-21T12:47:55;73223.09;;;-142.66;92.79
11468;BME280;5790;42.762;23.430;2023-11-21T12:50:29;73212.91;;;-142.66;92.28